Time;durP1;ratioP1;P1;durP2;ratioP2;P2;SDS_P1;SDS_P2;PMS_P1;PMS_P2;Temp;Humidity;BMP_temperature;BMP_pressure;BME280_temperature;BME280_humidity;BME280_pressure;Samples;Min_cycle;Max_cycle;Signal;HPM_P1;HPM_P2
2023/11/16 00:00:16;;;;;;;15.65;2.28;;;8.40;99.90;;;;;;5048001;28;20052;-60
2023/11/16 00:02:42;;;;;;;13.75;3.10;;;8.40;99.90;;;;;;5044165;28;20029;-59
2023/11/16 00:05:12;;;;;;;19.42;2.63;;;8.40;99.90;;;;;;5050104;28;20028;-58
2023/11/16 00:07:41;;;;;;;9.38;1.90;;;8.40;99.90;;;;;;5047366;28;20096;-60
2023/11/16 00:10:10;;;;;;;18.70;2.85;;;8.40;99.90;;;;;;5041192;28;20025;-59
2023/11/16 00:12:35;;;;;;;22.95;2.55;;;8.40;99.90;;;;;;5040915;28;20035;-58
2023/11/16 00:15:01;;;;;;;13.48;2.53;;;8.50;99.90;;;;;;5042757;28;20089;-58
2023/11/16 00:17:30;;;;;;;15.80;2.67;;;8.50;99.90;;;;;;5047161;28;20382;-59
2023/11/16 00:19:56;;;;;;;23.48;2.83;;;8.40;99.90;;;;;;5039788;28;20512;-60
2023/11/16 00:22:21;;;;;;;17.80;2.65;;;8.40;99.90;;;;;;5038400;28;20033;-59
2023/11/16 00:24:47;;;;;;;20.23;3.03;;;8.30;99.90;;;;;;5039421;28;20487;-61
2023/11/16 00:27:12;;;;;;;22.48;2.85;;;8.30;99.90;;;;;;5035100;28;20112;-59
2023/11/16 00:29:38;;;;;;;14.77;2.10;;;8.20;99.90;;;;;;5042593;28;20390;-58
2023/11/16 00:32:04;;;;;;;17.90;3.45;;;8.20;99.90;;;;;;5038038;28;20013;-58
2023/11/16 00:34:30;;;;;;;11.73;1.85;;;8.10;99.90;;;;;;5047702;28;20032;-60
2023/11/16 00:36:55;;;;;;;16.92;2.65;;;8.10;99.90;;;;;;5041428;28;20021;-61
2023/11/16 00:39:21;;;;;;;16.33;3.53;;;8.00;99.90;;;;;;5042141;28;20036;-59
2023/11/16 00:41:47;;;;;;;16.95;2.65;;;8.00;99.90;;;;;;5040918;28;20476;-58
2023/11/16 00:44:14;;;;;;;21.50;2.58;;;7.90;99.90;;;;;;5041534;28;20040;-59
2023/11/16 00:46:43;;;;;;;18.25;2.30;;;7.90;99.90;;;;;;5046952;28;20403;-59
2023/11/16 00:49:09;;;;;;;17.73;2.72;;;7.90;99.90;;;;;;5039682;28;20021;-59
2023/11/16 00:51:34;;;;;;;17.25;2.30;;;7.90;99.90;;;;;;5037867;28;20025;-61
2023/11/16 00:54:01;;;;;;;11.05;2.78;;;7.90;99.90;;;;;;5045553;28;20036;-59
2023/11/16 00:56:27;;;;;;;13.50;2.50;;;7.90;99.90;;;;;;5041999;28;20495;-59
2023/11/16 00:58:55;;;;;;;22.90;2.70;;;8.00;99.90;;;;;;5040497;28;20108;-61
2023/11/16 01:01:22;;;;;;;12.75;2.38;;;8.00;99.90;;;;;;5037296;28;20016;-60
2023/11/16 01:03:49;;;;;;;27.65;2.40;;;8.10;99.90;;;;;;5047145;28;20025;-58
2023/11/16 01:06:15;;;;;;;18.08;2.40;;;8.10;99.90;;;;;;5051224;28;20029;-58
2023/11/16 01:08:41;;;;;;;19.98;2.65;;;8.10;99.90;;;;;;5044994;28;20018;-58
2023/11/16 01:11:12;;;;;;;14.75;2.45;;;8.20;99.90;;;;;;5039473;28;20029;-59
2023/11/16 01:13:38;;;;;;;11.60;2.42;;;8.20;99.90;;;;;;5048899;28;20081;-59
2023/11/16 01:16:14;;;;;;;21.83;2.75;;;8.20;99.90;;;;;;5043645;28;20024;-57
2023/11/16 01:18:46;;;;;;;26.25;3.08;;;8.20;99.90;;;;;;5039197;28;20048;-60
2023/11/16 01:21:15;;;;;;;22.60;3.67;;;8.20;99.90;;;;;;5042245;28;20032;-61
2023/11/16 01:23:41;;;;;;;19.20;2.80;;;8.20;99.90;;;;;;5042966;28;20036;-57
2023/11/16 01:26:14;;;;;;;16.55;2.72;;;8.10;99.90;;;;;;5037259;28;20025;-56
2023/11/16 01:28:50;;;;;;;16.75;2.50;;;8.20;99.90;;;;;;5044666;28;20574;-61
2023/11/16 01:31:17;;;;;;;17.88;2.35;;;8.30;99.90;;;;;;5039418;28;20037;-58
2023/11/16 01:33:43;;;;;;;18.15;2.25;;;8.30;99.90;;;;;;5041312;28;20029;-52
2023/11/16 01:36:09;;;;;;;15.30;2.50;;;8.30;99.90;;;;;;5046037;28;20025;-58
2023/11/16 01:38:38;;;;;;;16.10;3.13;;;8.40;99.90;;;;;;5038726;28;20033;-52
2023/11/16 01:41:06;;;;;;;11.23;2.03;;;8.40;99.90;;;;;;5040658;28;20139;-59
2023/11/16 01:43:33;;;;;;;12.52;2.13;;;8.40;99.90;;;;;;5036198;28;20032;-57
2023/11/16 01:46:05;;;;;;;17.17;2.88;;;8.40;99.90;;;;;;5040515;28;20487;-58
2023/11/16 01:48:36;;;;;;;22.83;2.55;;;8.40;99.90;;;;;;5044006;28;20035;-58
2023/11/16 01:51:05;;;;;;;15.73;2.55;;;8.50;99.90;;;;;;5035597;28;20036;-60
2023/11/16 01:53:37;;;;;;;21.92;3.10;;;8.50;99.90;;;;;;5040699;28;20448;-53
2023/11/16 01:56:04;;;;;;;23.88;2.80;;;8.50;99.90;;;;;;5040886;28;20423;-56
2023/11/16 01:58:33;;;;;;;20.02;4.00;;;8.50;99.90;;;;;;5039822;28;20080;-55
2023/11/16 02:01:01;;;;;;;9.57;2.28;;;8.60;99.90;;;;;;5037923;28;20036;-56
2023/11/16 02:03:26;;;;;;;14.65;2.72;;;8.60;99.90;;;;;;5042891;28;20087;-58
2023/11/16 02:05:53;;;;;;;12.68;2.65;;;8.60;99.90;;;;;;5037684;28;20029;-58
2023/11/16 02:08:19;;;;;;;19.40;2.92;;;8.60;99.90;;;;;;5041232;28;20021;-57
2023/11/16 02:10:44;;;;;;;20.27;2.35;;;8.60;99.90;;;;;;5037657;28;20438;-55
2023/11/16 02:13:21;;;;;;;14.10;2.33;;;8.60;99.90;;;;;;5041437;28;20512;-57
2023/11/16 02:15:47;;;;;;;16.95;2.55;;;8.60;99.90;;;;;;5040799;28;20033;-59
2023/11/16 02:18:14;;;;;;;16.13;2.17;;;8.60;99.90;;;;;;5040905;28;20040;-60
2023/11/16 02:20:41;;;;;;;17.48;2.10;;;8.70;99.90;;;;;;5038989;28;20030;-60
2023/11/16 02:23:07;;;;;;;18.77;2.20;;;8.70;99.90;;;;;;5037997;28;20406;-57
2023/11/16 02:25:46;;;;;;;16.35;2.38;;;8.70;99.90;;;;;;5036705;28;20028;-59
2023/11/16 02:28:15;;;;;;;8.75;2.30;;;8.70;99.90;;;;;;5039642;28;20028;-59
2023/11/16 02:30:41;;;;;;;16.48;2.05;;;8.70;99.90;;;;;;5042887;28;20392;-59
2023/11/16 02:33:07;;;;;;;16.77;2.28;;;8.80;99.90;;;;;;5035668;28;20029;-58
2023/11/16 02:35:33;;;;;;;10.50;1.80;;;8.80;99.90;;;;;;5039821;28;20480;-56
2023/11/16 02:38:03;;;;;;;14.38;2.10;;;8.80;99.90;;;;;;5035813;28;20018;-61
2023/11/16 02:40:29;;;;;;;13.18;2.63;;;8.70;99.90;;;;;;5040809;28;20022;-59
2023/11/16 02:42:55;;;;;;;14.60;2.30;;;8.70;99.90;;;;;;5039163;28;20412;-60
2023/11/16 02:45:22;;;;;;;10.32;2.72;;;8.80;99.90;;;;;;5038729;28;20029;-59
2023/11/16 02:47:49;;;;;;;10.35;2.30;;;8.80;99.90;;;;;;5042646;28;20025;-59
2023/11/16 02:50:16;;;;;;;16.15;2.08;;;8.80;99.90;;;;;;5042534;28;20021;-59
2023/11/16 02:52:44;;;;;;;14.27;1.98;;;8.90;99.90;;;;;;5038482;28;20021;-59
2023/11/16 02:55:10;;;;;;;16.88;2.58;;;8.90;99.90;;;;;;5038535;28;20021;-57
2023/11/16 02:57:39;;;;;;;14.90;2.58;;;8.90;99.90;;;;;;5039150;28;20026;-55
2023/11/16 03:00:07;;;;;;;16.05;3.50;;;8.90;99.90;;;;;;5044515;28;20101;-54
2023/11/16 03:02:33;;;;;;;13.80;2.78;;;8.90;99.90;;;;;;5042692;28;20082;-60
2023/11/16 03:04:58;;;;;;;16.00;2.65;;;8.90;99.90;;;;;;5043622;28;20025;-60
2023/11/16 03:07:24;;;;;;;15.27;2.35;;;8.90;99.90;;;;;;5036419;28;20491;-57
2023/11/16 03:09:49;;;;;;;18.48;3.38;;;9.00;99.90;;;;;;5045684;28;20392;-60
2023/11/16 03:12:15;;;;;;;10.40;2.10;;;8.90;99.90;;;;;;5045087;28;20078;-59
2023/11/16 03:14:41;;;;;;;12.70;1.95;;;9.00;99.90;;;;;;5046623;28;20029;-59
2023/11/16 03:17:06;;;;;;;10.68;2.47;;;9.00;99.90;;;;;;5040480;28;20120;-59
2023/11/16 03:19:34;;;;;;;14.90;2.83;;;8.90;99.90;;;;;;5044732;28;20029;-57
2023/11/16 03:22:03;;;;;;;18.38;2.80;;;8.90;99.90;;;;;;5054027;28;20029;-59
2023/11/16 03:24:30;;;;;;;18.65;2.55;;;8.90;99.90;;;;;;5038728;28;20036;-57
2023/11/16 03:26:55;;;;;;;19.73;3.17;;;9.00;99.90;;;;;;5045646;28;20029;-59
2023/11/16 03:29:21;;;;;;;18.33;2.67;;;9.00;99.90;;;;;;5046319;28;20040;-61
2023/11/16 03:31:47;;;;;;;9.55;2.25;;;8.90;99.90;;;;;;5044306;28;20033;-60
2023/11/16 03:34:13;;;;;;;25.17;2.38;;;9.00;99.90;;;;;;5043568;28;20028;-58
2023/11/16 03:36:39;;;;;;;15.40;1.98;;;8.90;99.90;;;;;;5041536;28;20074;-61
2023/11/16 03:39:04;;;;;;;12.10;2.30;;;9.00;99.90;;;;;;5046595;28;20036;-60
2023/11/16 03:41:30;;;;;;;17.45;2.22;;;9.00;99.90;;;;;;5046740;28;20036;-59
2023/11/16 03:43:56;;;;;;;13.50;2.50;;;9.00;99.90;;;;;;5049216;28;20091;-58
2023/11/16 03:46:21;;;;;;;11.70;2.53;;;8.90;99.90;;;;;;5046476;28;20039;-60
2023/11/16 03:48:47;;;;;;;9.80;2.40;;;8.90;99.90;;;;;;5049624;28;20078;-58
2023/11/16 03:51:13;;;;;;;18.75;3.05;;;9.00;99.90;;;;;;5050553;28;20043;-56
2023/11/16 03:53:39;;;;;;;9.77;2.58;;;9.00;99.90;;;;;;5047855;28;20017;-54
2023/11/16 03:56:07;;;;;;;19.67;2.40;;;9.00;99.90;;;;;;5043118;28;20029;-56
2023/11/16 03:58:33;;;;;;;18.63;2.25;;;8.90;99.90;;;;;;5045606;28;20037;-53
2023/11/16 04:00:58;;;;;;;17.23;2.55;;;8.90;99.90;;;;;;5037903;28;20025;-56
2023/11/16 04:03:24;;;;;;;20.05;2.50;;;8.80;99.90;;;;;;5043652;28;20391;-58
2023/11/16 04:05:50;;;;;;;20.48;3.22;;;8.80;99.90;;;;;;5044771;28;20664;-57
2023/11/16 04:08:15;;;;;;;17.30;2.22;;;8.70;99.90;;;;;;5039754;28;20018;-56
2023/11/16 04:10:41;;;;;;;13.07;2.30;;;8.70;99.90;;;;;;5042518;28;20032;-59
2023/11/16 04:13:06;;;;;;;15.32;2.00;;;8.70;99.90;;;;;;5047368;28;20041;-60
2023/11/16 04:15:32;;;;;;;19.48;2.35;;;8.50;99.90;;;;;;5041774;28;20029;-59
2023/11/16 04:17:58;;;;;;;12.07;2.03;;;8.30;99.90;;;;;;5044245;28;20032;-58
2023/11/16 04:20:27;;;;;;;22.48;2.42;;;8.20;99.90;;;;;;5044174;28;20036;-59
2023/11/16 04:22:53;;;;;;;10.75;1.77;;;8.20;99.90;;;;;;5043837;28;20384;-55
2023/11/16 04:25:22;;;;;;;17.58;2.28;;;8.00;99.90;;;;;;5046211;28;20613;-53
2023/11/16 04:27:49;;;;;;;12.38;2.90;;;7.90;99.90;;;;;;5044042;28;20013;-57
2023/11/16 04:30:19;;;;;;;10.20;2.47;;;7.70;99.90;;;;;;5049181;28;20027;-59
2023/11/16 04:32:45;;;;;;;15.00;2.80;;;7.60;99.90;;;;;;5044707;28;20026;-59
2023/11/16 04:35:13;;;;;;;15.73;3.05;;;7.50;99.90;;;;;;5048606;28;20459;-58
2023/11/16 04:37:39;;;;;;;10.80;2.35;;;7.50;99.90;;;;;;5038087;28;20020;-58
2023/11/16 04:40:08;;;;;;;16.05;3.45;;;7.50;99.90;;;;;;5043778;28;20047;-61
2023/11/16 04:42:33;;;;;;;12.35;2.25;;;7.50;99.90;;;;;;5043923;28;20513;-59
2023/11/16 04:45:03;;;;;;;20.60;2.72;;;7.40;99.90;;;;;;5047607;28;20032;-60
2023/11/16 04:47:30;;;;;;;6.95;2.05;;;7.40;99.90;;;;;;5047242;28;20033;-60
2023/11/16 04:49:56;;;;;;;18.27;2.10;;;7.30;99.90;;;;;;5043052;28;20022;-59
2023/11/16 04:52:23;;;;;;;6.22;2.33;;;7.30;99.90;;;;;;5046363;28;20382;-58
2023/11/16 04:54:49;;;;;;;15.15;2.58;;;7.20;99.90;;;;;;5042413;28;20078;-57
2023/11/16 04:57:15;;;;;;;9.95;2.60;;;7.20;99.90;;;;;;5042325;28;20029;-61
2023/11/16 04:59:40;;;;;;;14.68;3.00;;;7.20;99.90;;;;;;5045183;28;20024;-60
2023/11/16 05:02:07;;;;;;;28.98;3.30;;;7.20;99.90;;;;;;5041116;28;20029;-60
2023/11/16 05:04:32;;;;;;;11.60;2.67;;;7.30;99.90;;;;;;5043378;28;20024;-60
2023/11/16 05:06:58;;;;;;;11.35;2.42;;;7.20;99.90;;;;;;5047240;28;20029;-60
2023/11/16 05:09:26;;;;;;;12.32;2.80;;;7.20;99.90;;;;;;5042729;28;20041;-60
2023/11/16 05:11:54;;;;;;;8.98;2.38;;;7.10;99.90;;;;;;5042204;28;20412;-57
2023/11/16 05:14:20;;;;;;;22.08;3.80;;;7.00;99.90;;;;;;5044538;28;20102;-58
2023/11/16 05:16:45;;;;;;;20.15;3.17;;;7.00;99.90;;;;;;5045536;28;20057;-58
2023/11/16 05:19:11;;;;;;;12.90;2.88;;;6.80;99.90;;;;;;5041023;28;20037;-60
2023/11/16 05:21:36;;;;;;;9.13;2.55;;;6.80;99.90;;;;;;5037973;28;20498;-59
2023/11/16 05:24:03;;;;;;;15.35;2.83;;;6.70;99.90;;;;;;5041518;28;20108;-61
2023/11/16 05:26:30;;;;;;;21.67;3.35;;;6.80;99.90;;;;;;5051619;28;20490;-61
2023/11/16 05:28:55;;;;;;;12.57;3.60;;;6.90;99.90;;;;;;5039252;28;20025;-57
2023/11/16 05:31:21;;;;;;;16.05;4.00;;;7.10;99.90;;;;;;5040339;28;20035;-58
2023/11/16 05:33:47;;;;;;;8.90;2.97;;;7.10;99.90;;;;;;5039385;28;20029;-59
2023/11/16 05:36:12;;;;;;;16.23;3.63;;;7.40;99.90;;;;;;5046353;28;20025;-56
2023/11/16 05:38:38;;;;;;;13.43;3.33;;;7.70;99.90;;;;;;5039990;28;20036;-58
2023/11/16 05:41:04;;;;;;;16.08;2.75;;;7.80;99.90;;;;;;5039249;28;20021;-58
2023/11/16 05:43:30;;;;;;;19.88;3.13;;;7.70;99.90;;;;;;5044733;28;20059;-60
2023/11/16 05:45:56;;;;;;;11.70;2.67;;;7.60;99.90;;;;;;5043560;28;20068;-57
2023/11/16 05:48:21;;;;;;;12.35;3.20;;;7.70;99.90;;;;;;5040742;28;20025;-59
2023/11/16 05:50:47;;;;;;;11.85;3.60;;;7.60;99.90;;;;;;5040911;28;20488;-58
2023/11/16 05:53:13;;;;;;;12.93;3.00;;;7.80;99.90;;;;;;5040485;28;20034;-56
2023/11/16 05:55:39;;;;;;;10.88;2.70;;;7.80;99.90;;;;;;5036450;28;20111;-53
2023/11/16 05:58:07;;;;;;;18.33;3.58;;;7.80;99.90;;;;;;5041908;28;20450;-58
2023/11/16 06:00:36;;;;;;;11.10;3.10;;;7.90;99.90;;;;;;5043333;28;20037;-59
2023/11/16 06:03:02;;;;;;;12.30;2.80;;;7.90;99.90;;;;;;5034661;28;20028;-57
2023/11/16 06:05:28;;;;;;;16.35;3.40;;;8.00;99.90;;;;;;5043959;28;20108;-59
2023/11/16 06:07:55;;;;;;;10.85;2.92;;;7.90;99.90;;;;;;5040521;28;20128;-58
2023/11/16 06:10:21;;;;;;;14.60;3.63;;;7.90;99.90;;;;;;5037756;28;20028;-58
2023/11/16 06:12:47;;;;;;;18.40;3.72;;;7.80;99.90;;;;;;5044384;28;20021;-59
2023/11/16 06:15:14;;;;;;;18.58;3.60;;;7.80;99.90;;;;;;5040837;28;20133;-58
2023/11/16 06:17:43;;;;;;;14.40;3.85;;;7.80;99.90;;;;;;5049151;28;20081;-59
2023/11/16 06:20:10;;;;;;;18.83;2.75;;;7.80;99.90;;;;;;5035073;28;20029;-57
2023/11/16 06:22:37;;;;;;;23.02;3.65;;;7.80;99.90;;;;;;5029603;28;20025;-58
2023/11/16 06:25:04;;;;;;;31.40;3.72;;;7.70;99.90;;;;;;5042190;28;20050;-59
2023/11/16 06:27:30;;;;;;;14.40;3.53;;;7.80;99.90;;;;;;5039545;28;20120;-57
2023/11/16 06:29:56;;;;;;;12.30;3.08;;;7.70;99.90;;;;;;5044229;28;20514;-58
2023/11/16 06:32:22;;;;;;;16.48;3.20;;;7.70;99.90;;;;;;5034636;28;20031;-54
2023/11/16 06:34:48;;;;;;;20.30;4.30;;;7.60;99.90;;;;;;5037752;28;20026;-59
2023/11/16 06:37:14;;;;;;;31.02;4.20;;;7.60;99.90;;;;;;5033007;28;20032;-58
2023/11/16 06:39:40;;;;;;;13.98;2.90;;;7.60;99.90;;;;;;5040045;28;20037;-58
2023/11/16 06:42:06;;;;;;;8.07;3.42;;;7.60;99.90;;;;;;5041881;28;20033;-57
2023/11/16 06:44:32;;;;;;;12.30;4.18;;;7.60;99.90;;;;;;5050865;28;20571;-60
2023/11/16 06:46:58;;;;;;;46.92;4.53;;;7.50;99.90;;;;;;5047420;28;20028;-57
2023/11/16 06:49:26;;;;;;;19.10;3.83;;;7.50;99.90;;;;;;5045902;28;20369;-56
2023/11/16 06:51:52;;;;;;;11.52;4.30;;;7.40;99.90;;;;;;5040847;28;20040;-61
2023/11/16 06:54:18;;;;;;;33.15;4.85;;;7.50;99.90;;;;;;5043566;28;20651;-59
2023/11/16 06:56:44;;;;;;;19.95;4.78;;;7.60;99.90;;;;;;5048103;28;20039;-59
2023/11/16 06:59:12;;;;;;;27.17;4.05;;;7.60;99.90;;;;;;5038255;28;20025;-61
2023/11/16 07:01:43;;;;;;;23.33;4.90;;;7.60;99.90;;;;;;5037060;28;20078;-60
2023/11/16 07:04:09;;;;;;;22.38;4.32;;;7.50;99.90;;;;;;5042294;28;20121;-60
2023/11/16 07:06:35;;;;;;;20.23;3.72;;;7.40;99.90;;;;;;5039603;28;20064;-60
2023/11/16 07:09:01;;;;;;;12.75;3.33;;;7.40;99.90;;;;;;5043237;28;20029;-59
2023/11/16 07:11:27;;;;;;;34.83;5.07;;;7.40;99.90;;;;;;5038970;28;20086;-58
2023/11/16 07:13:52;;;;;;;23.00;4.28;;;7.50;99.90;;;;;;5045616;28;20115;-59
2023/11/16 07:16:18;;;;;;;17.30;4.38;;;7.50;99.90;;;;;;5041460;28;20067;-57
2023/11/16 07:18:47;;;;;;;34.90;4.60;;;7.50;99.90;;;;;;5038363;28;20025;-60
2023/11/16 07:21:14;;;;;;;14.95;4.18;;;7.60;99.90;;;;;;5042527;28;20033;-59
2023/11/16 07:23:43;;;;;;;16.67;4.07;;;7.50;99.90;;;;;;5038789;28;20495;-58
2023/11/16 07:26:09;;;;;;;17.55;3.85;;;7.40;99.90;;;;;;5040343;28;20033;-61
2023/11/16 07:28:44;;;;;;;9.45;4.55;;;7.40;99.90;;;;;;5043328;28;20029;-60
2023/11/16 07:31:09;;;;;;;13.07;3.95;;;7.40;99.90;;;;;;5037290;28;20088;-59
2023/11/16 07:33:35;;;;;;;14.45;3.25;;;7.30;99.90;;;;;;5046476;28;20099;-60
2023/11/16 07:36:01;;;;;;;7.00;2.83;;;7.30;99.90;;;;;;5043998;28;20103;-55
2023/11/16 07:38:28;;;;;;;18.55;3.40;;;7.20;99.90;;;;;;5039757;28;20033;-58
2023/11/16 07:40:57;;;;;;;12.25;3.03;;;7.20;99.90;;;;;;5042971;28;20032;-60
2023/11/16 07:43:23;;;;;;;9.57;3.40;;;7.20;99.90;;;;;;5047997;28;20111;-57
2023/11/16 07:45:49;;;;;;;15.15;3.17;;;7.20;99.90;;;;;;5047706;28;20542;-58
2023/11/16 07:48:15;;;;;;;8.75;2.75;;;7.20;99.90;;;;;;5042344;28;20115;-56
2023/11/16 07:50:42;;;;;;;20.65;3.85;;;7.30;99.90;;;;;;5042907;28;20154;-60
2023/11/16 07:53:10;;;;;;;12.43;3.00;;;7.30;99.90;;;;;;5038074;28;20033;-57
2023/11/16 07:55:37;;;;;;;12.05;2.88;;;7.30;99.90;;;;;;5041075;28;20033;-59
2023/11/16 07:58:03;;;;;;;16.42;2.75;;;7.30;99.90;;;;;;5042397;28;20159;-58
2023/11/16 08:00:44;;;;;;;18.60;3.88;;;7.30;99.90;;;;;;5044138;28;20032;-59
2023/11/16 08:05:54;;;;;;;;;;;7.30;99.90;;;;;;5042146;28;20063;-60
2023/11/16 08:08:20;;;;;;;17.30;3.78;;;7.40;99.90;;;;;;5043067;28;20371;-59
2023/11/16 08:10:48;;;;;;;28.05;4.30;;;7.30;99.90;;;;;;5044644;28;20025;-61
2023/11/16 08:13:18;;;;;;;35.30;3.63;;;7.40;99.90;;;;;;5042336;28;20028;-59
2023/11/16 08:15:52;;;;;;;17.77;3.75;;;7.50;99.90;;;;;;5047653;28;20021;-60
2023/11/16 08:18:21;;;;;;;14.85;3.33;;;7.50;99.90;;;;;;5044024;28;20044;-59
2023/11/16 08:20:47;;;;;;;11.95;3.42;;;7.50;99.90;;;;;;5044065;28;20022;-58
2023/11/16 08:23:13;;;;;;;13.85;3.13;;;7.40;99.90;;;;;;5041452;28;20029;-60
2023/11/16 08:25:39;;;;;;;15.00;3.08;;;7.40;99.90;;;;;;5037420;28;20522;-58
2023/11/16 08:28:08;;;;;;;18.15;3.92;;;7.40;99.90;;;;;;5047649;28;20017;-58
2023/11/16 08:30:34;;;;;;;12.20;4.03;;;7.40;99.90;;;;;;5042622;28;20049;-59
2023/11/16 08:33:00;;;;;;;16.75;3.28;;;7.40;99.90;;;;;;5046581;28;20427;-60
2023/11/16 08:35:26;;;;;;;16.88;3.35;;;7.50;99.90;;;;;;5044673;28;20028;-57
2023/11/16 08:37:54;;;;;;;10.32;3.15;;;7.50;99.90;;;;;;5044384;28;20530;-60
2023/11/16 08:40:23;;;;;;;16.17;3.25;;;7.50;99.90;;;;;;5044262;28;20051;-59
2023/11/16 08:42:50;;;;;;;14.30;3.20;;;7.50;99.90;;;;;;5042258;28;20025;-59
2023/11/16 08:45:19;;;;;;;8.88;2.78;;;7.50;99.90;;;;;;5039462;28;20033;-58
2023/11/16 08:47:46;;;;;;;14.75;3.90;;;7.50;99.90;;;;;;5042273;28;20028;-60
2023/11/16 08:50:13;;;;;;;15.82;2.80;;;7.60;99.90;;;;;;5046266;28;20569;-55
2023/11/16 08:52:42;;;;;;;10.85;2.45;;;7.60;99.90;;;;;;5039716;28;20033;-58
2023/11/16 08:55:10;;;;;;;17.75;5.90;;;7.70;99.90;;;;;;5043618;28;20036;-59
2023/11/16 08:57:36;;;;;;;13.77;3.45;;;7.80;99.90;;;;;;5039372;28;20056;-58
2023/11/16 09:00:25;;;;;;;16.38;2.92;;;7.90;99.90;;;;;;5044543;28;20056;-57
2023/11/16 09:02:54;;;;;;;14.95;3.15;;;8.00;99.90;;;;;;5038436;28;20117;-55
2023/11/16 09:05:20;;;;;;;19.23;3.38;;;8.20;99.90;;;;;;5046183;28;20032;-59
2023/11/16 09:07:46;;;;;;;13.18;3.00;;;8.40;99.90;;;;;;5041264;28;20051;-59
2023/11/16 09:10:14;;;;;;;9.27;3.08;;;8.50;99.90;;;;;;5045095;28;20542;-57
2023/11/16 09:12:41;;;;;;;6.05;2.75;;;8.70;99.90;;;;;;5040380;28;20029;-59
2023/11/16 09:15:10;;;;;;;13.55;3.38;;;8.80;99.90;;;;;;5038768;28;20033;-56
2023/11/16 09:17:36;;;;;;;15.73;2.80;;;8.80;99.90;;;;;;5039635;28;20124;-58
2023/11/16 09:20:09;;;;;;;12.68;3.90;;;8.90;99.90;;;;;;5042390;28;20100;-61
2023/11/16 09:22:36;;;;;;;23.25;3.72;;;9.10;99.90;;;;;;5041035;28;20033;-58
2023/11/16 09:25:02;;;;;;;23.48;3.42;;;9.10;99.90;;;;;;5042253;28;20051;-58
2023/11/16 09:27:29;;;;;;;16.10;3.72;;;9.20;99.90;;;;;;5034823;28;20021;-57
2023/11/16 09:29:55;;;;;;;9.10;3.03;;;9.30;99.90;;;;;;5046950;28;20021;-59
2023/11/16 09:32:21;;;;;;;14.95;2.97;;;9.40;99.90;;;;;;5038347;28;20045;-59
2023/11/16 09:34:48;;;;;;;23.25;2.63;;;9.40;99.90;;;;;;5039293;28;20111;-59
2023/11/16 09:37:14;;;;;;;23.08;2.97;;;9.40;99.90;;;;;;5043714;28;20055;-57
2023/11/16 09:39:40;;;;;;;15.20;2.50;;;9.50;99.90;;;;;;5040261;28;20030;-58
2023/11/16 09:42:08;;;;;;;22.67;3.00;;;9.50;99.90;;;;;;5036239;28;20029;-59
2023/11/16 09:44:38;;;;;;;13.45;3.00;;;9.60;99.90;;;;;;5043828;28;20078;-59
2023/11/16 09:47:08;;;;;;;11.38;3.45;;;9.60;99.90;;;;;;5045266;28;20438;-58
2023/11/16 09:49:35;;;;;;;16.50;3.50;;;9.40;99.90;;;;;;5041383;28;20059;-57
2023/11/16 09:52:04;;;;;;;11.32;3.17;;;9.40;99.90;;;;;;5041118;28;20032;-57
2023/11/16 09:54:31;;;;;;;17.52;3.75;;;9.40;99.90;;;;;;5044495;28;20043;-59
2023/11/16 09:57:00;;;;;;;16.55;4.07;;;9.40;99.90;;;;;;5040309;28;20024;-60
2023/11/16 09:59:34;;;;;;;16.67;4.47;;;9.30;99.90;;;;;;5040817;28;20044;-60
2023/11/16 10:02:09;;;;;;;18.35;4.43;;;9.30;99.90;;;;;;5041398;28;20116;-59
2023/11/16 10:04:41;;;;;;;17.00;4.00;;;9.40;99.90;;;;;;5038927;28;20033;-60
2023/11/16 10:07:12;;;;;;;22.27;4.05;;;9.40;99.90;;;;;;5037758;28;20037;-60
2023/11/16 10:09:41;;;;;;;18.00;3.55;;;9.40;99.90;;;;;;5043308;28;20055;-58
2023/11/16 10:12:11;;;;;;;16.67;3.35;;;9.30;99.90;;;;;;5040662;28;20028;-57
2023/11/16 10:14:51;;;;;;;30.00;5.55;;;9.30;99.90;;;;;;5038937;28;20013;-59
2023/11/16 10:17:19;;;;;;;36.28;4.28;;;9.40;99.90;;;;;;5040222;28;20029;-57
2023/11/16 10:19:44;;;;;;;35.35;4.18;;;9.40;99.90;;;;;;5046072;28;20511;-59
2023/11/16 10:22:10;;;;;;;12.02;2.60;;;9.50;99.90;;;;;;5042893;28;20041;-59
2023/11/16 10:24:36;;;;;;;15.65;3.35;;;9.50;99.90;;;;;;5038563;28;20029;-58
2023/11/16 10:27:01;;;;;;;22.52;3.95;;;9.40;99.90;;;;;;5041793;28;20029;-59
2023/11/16 10:29:27;;;;;;;17.13;3.13;;;9.40;99.90;;;;;;5049307;28;20102;-58
2023/11/16 10:31:53;;;;;;;26.15;3.95;;;9.50;99.90;;;;;;5050366;28;20407;-60
2023/11/16 10:34:25;;;;;;;20.73;4.85;;;9.60;99.90;;;;;;5045319;28;20027;-59
2023/11/16 10:36:55;;;;;;;14.38;3.67;;;9.60;99.90;;;;;;5049531;28;20040;-60
2023/11/16 10:39:27;;;;;;;17.45;3.60;;;9.60;99.90;;;;;;5044839;28;20021;-60
2023/11/16 10:41:53;;;;;;;12.55;3.33;;;9.70;99.90;;;;;;5046964;28;20131;-57
2023/11/16 10:44:22;;;;;;;13.85;3.38;;;9.70;99.90;;;;;;5048029;28;20122;-59
2023/11/16 10:46:49;;;;;;;16.23;4.00;;;9.60;99.90;;;;;;5044656;28;20029;-56
2023/11/16 10:49:16;;;;;;;25.70;4.60;;;9.50;99.90;;;;;;5042638;28;20033;-56
2023/11/16 10:51:46;;;;;;;13.35;3.75;;;9.40;99.90;;;;;;5046478;28;20591;-58
2023/11/16 10:54:18;;;;;;;13.70;3.90;;;9.50;99.90;;;;;;5042653;28;20060;-55
2023/11/16 10:56:44;;;;;;;21.25;4.18;;;9.50;99.90;;;;;;5043907;28;20029;-58
2023/11/16 10:59:13;;;;;;;20.23;4.55;;;9.50;99.90;;;;;;5040865;28;20039;-56
2023/11/16 11:01:39;;;;;;;26.42;4.03;;;9.40;99.90;;;;;;5041829;28;20072;-56
2023/11/16 11:04:06;;;;;;;19.30;3.00;;;9.50;99.90;;;;;;5048022;28;20114;-58
2023/11/16 11:06:32;;;;;;;10.93;3.17;;;9.40;99.90;;;;;;5039422;28;20068;-58
2023/11/16 11:08:58;;;;;;;12.52;3.47;;;9.40;99.90;;;;;;5044322;28;20505;-59
2023/11/16 11:11:26;;;;;;;17.45;3.53;;;9.40;99.90;;;;;;5042763;28;20033;-56
2023/11/16 11:13:57;;;;;;;21.23;3.85;;;9.30;99.90;;;;;;5042923;28;20128;-57
2023/11/16 11:16:29;;;;;;;18.20;3.92;;;9.20;99.90;;;;;;5040291;28;20040;-57
2023/11/16 11:18:54;;;;;;;15.40;3.55;;;9.10;99.90;;;;;;5038906;28;20098;-56
2023/11/16 11:21:22;;;;;;;20.55;4.38;;;9.20;99.90;;;;;;5040059;28;20487;-59
2023/11/16 11:24:04;;;;;;;39.60;4.78;;;9.20;99.90;;;;;;5043359;28;20039;-56
2023/11/16 11:26:56;;;;;;;21.88;3.53;;;9.20;99.90;;;;;;5041570;28;20043;-59
2023/11/16 11:29:23;;;;;;;20.38;3.42;;;9.20;99.90;;;;;;5038663;28;20045;-58
2023/11/16 11:32:25;;;;;;;11.50;3.20;;;9.20;99.90;;;;;;5041969;28;20017;-59
2023/11/16 11:34:51;;;;;;;29.42;3.47;;;9.30;99.90;;;;;;5027339;28;20112;-59
2023/11/16 11:37:17;;;;;;;21.55;3.45;;;9.30;99.90;;;;;;5038302;28;20172;-57
2023/11/16 11:39:45;;;;;;;15.27;3.22;;;9.30;99.90;;;;;;5042276;28;20021;-56
2023/11/16 11:42:14;;;;;;;18.50;3.53;;;9.30;99.90;;;;;;5038079;28;20032;-58
2023/11/16 11:44:53;;;;;;;31.08;3.60;;;9.40;99.90;;;;;;5041864;28;20025;-57
2023/11/16 11:47:20;;;;;;;28.52;3.78;;;9.40;99.90;;;;;;5040006;28;20096;-58
2023/11/16 11:49:48;;;;;;;28.42;3.60;;;9.40;99.90;;;;;;5044681;28;20087;-54
2023/11/16 11:52:16;;;;;;;20.95;4.10;;;9.40;99.90;;;;;;5042992;28;20052;-57
2023/11/16 11:54:43;;;;;;;14.20;3.75;;;9.40;99.90;;;;;;5042003;28;20576;-58
2023/11/16 11:57:08;;;;;;;18.38;3.92;;;9.40;99.90;;;;;;5044263;28;20067;-56
2023/11/16 11:59:36;;;;;;;12.75;3.78;;;9.30;99.90;;;;;;5040724;28;20025;-55
2023/11/16 12:02:09;;;;;;;14.95;3.50;;;9.30;99.90;;;;;;5039741;28;20080;-56
2023/11/16 12:04:36;;;;;;;15.55;4.88;;;9.20;99.90;;;;;;5039650;28;20025;-58
2023/11/16 12:07:10;;;;;;;16.60;3.28;;;9.20;99.90;;;;;;5042135;28;20037;-58
2023/11/16 12:09:40;;;;;;;23.05;4.15;;;9.30;99.90;;;;;;5044208;28;20135;-60
2023/11/16 12:12:08;;;;;;;40.55;5.00;;;9.30;99.90;;;;;;5040055;28;20045;-58
2023/11/16 12:14:38;;;;;;;43.50;4.38;;;9.40;99.90;;;;;;5039294;28;20017;-59
2023/11/16 12:17:04;;;;;;;21.40;3.78;;;9.40;99.90;;;;;;5038474;28;20040;-61
2023/11/16 12:19:31;;;;;;;15.98;3.70;;;9.30;99.90;;;;;;5037687;28;20021;-60
2023/11/16 12:21:57;;;;;;;15.00;3.33;;;9.30;99.90;;;;;;5041194;28;20036;-58
2023/11/16 12:24:24;;;;;;;14.95;3.45;;;9.20;99.90;;;;;;5040519;28;20037;-59
2023/11/16 12:26:52;;;;;;;18.70;3.80;;;9.20;99.90;;;;;;5035549;28;20025;-57
2023/11/16 12:29:22;;;;;;;15.88;3.10;;;9.10;99.90;;;;;;5037268;28;20033;-58
2023/11/16 12:31:49;;;;;;;13.07;3.35;;;9.10;99.90;;;;;;5041321;28;20044;-59
2023/11/16 12:34:15;;;;;;;16.40;4.00;;;9.10;99.90;;;;;;5041024;28;20028;-54
2023/11/16 12:36:44;;;;;;;15.20;2.88;;;9.10;99.90;;;;;;5038097;28;20029;-55
2023/11/16 12:39:10;;;;;;;12.52;4.35;;;9.10;99.90;;;;;;5032817;28;20264;-55
2023/11/16 12:41:39;;;;;;;22.80;3.53;;;9.10;99.90;;;;;;5040308;28;20055;-57
2023/11/16 12:44:06;;;;;;;22.00;4.63;;;9.10;99.90;;;;;;5041167;28;20092;-58
2023/11/16 12:46:31;;;;;;;10.52;3.58;;;9.10;99.90;;;;;;5043318;28;20029;-59
2023/11/16 12:48:57;;;;;;;12.32;3.65;;;9.10;99.90;;;;;;5035706;28;20055;-58
2023/11/16 12:51:24;;;;;;;18.48;3.53;;;9.10;99.90;;;;;;5039361;28;20033;-58